createdAt,value
2022-08-20T00:00:33.641Z,285.00
2022-08-20T00:01:33.661Z,287.00
2022-08-20T00:02:33.604Z,287.00
2022-08-20T00:03:33.596Z,285.00
2022-08-20T00:04:33.602Z,285.00
2022-08-20T00:05:33.569Z,286.00
2022-08-20T00:06:33.594Z,286.00
2022-08-20T00:07:33.543Z,287.00
2022-08-20T00:08:33.553Z,285.00
2022-08-20T00:09:33.523Z,286.00
2022-08-20T00:10:33.510Z,286.00
2022-08-20T00:11:33.483Z,288.00
2022-08-20T00:12:33.522Z,289.00
2022-08-20T00:13:33.470Z,289.00
2022-08-20T00:14:34.042Z,287.00
2022-08-20T00:15:33.417Z,286.00
2022-08-20T00:16:33.441Z,285.00
2022-08-20T00:17:33.428Z,284.00
2022-08-20T00:18:33.420Z,282.00
2022-08-20T00:19:33.426Z,283.00
2022-08-20T00:20:33.370Z,283.00
2022-08-20T00:21:33.371Z,283.00
2022-08-20T00:22:33.339Z,285.00
2022-08-20T00:23:33.353Z,283.00
2022-08-20T00:24:33.335Z,284.00
2022-08-20T00:25:33.326Z,285.00
2022-08-20T00:26:33.274Z,285.00
2022-08-20T00:27:33.286Z,285.00
2022-08-20T00:28:33.285Z,287.00
2022-08-20T00:29:33.258Z,284.00
2022-08-20T00:30:33.264Z,283.00
2022-08-20T00:31:33.252Z,286.00
2022-08-20T00:32:33.213Z,286.00
2022-08-20T00:33:33.187Z,286.00
2022-08-20T00:34:33.275Z,286.00
2022-08-20T00:35:33.225Z,288.00
2022-08-20T00:36:33.196Z,287.00
2022-08-20T00:37:33.140Z,286.00
2022-08-20T00:38:33.135Z,284.00
2022-08-20T00:39:33.155Z,283.00
2022-08-20T00:40:33.111Z,283.00
2022-08-20T00:41:33.104Z,282.00
2022-08-20T00:42:33.091Z,282.00
2022-08-20T00:43:33.092Z,283.00
2022-08-20T00:44:33.056Z,283.00
2022-08-20T00:45:33.059Z,281.00
2022-08-20T00:46:33.031Z,282.00
2022-08-20T00:47:33.037Z,284.00
2022-08-20T00:48:33.032Z,284.00
2022-08-20T00:49:32.986Z,286.00
2022-08-20T00:50:32.978Z,284.00
2022-08-20T00:51:32.987Z,284.00
2022-08-20T00:52:32.954Z,285.00
2022-08-20T00:53:32.980Z,288.00
2022-08-20T00:54:32.923Z,288.00
2022-08-20T00:55:32.894Z,287.00
2022-08-20T00:56:32.883Z,286.00
2022-08-20T00:57:59.787Z,286.00
2022-08-20T00:58:32.892Z,287.00
2022-08-20T00:59:32.899Z,286.00
2022-08-20T01:00:32.857Z,284.00
2022-08-20T01:01:32.913Z,284.00
2022-08-20T01:02:32.806Z,285.00
2022-08-20T01:03:32.804Z,284.00
2022-08-20T01:04:32.835Z,284.00
2022-08-20T01:05:32.778Z,281.00
2022-08-20T01:06:32.742Z,282.00
2022-08-20T01:07:32.762Z,284.00
2022-08-20T01:08:32.758Z,282.00
2022-08-20T01:09:49.592Z,284.00
2022-08-20T01:10:32.708Z,283.00
2022-08-20T01:11:36.910Z,282.00
2022-08-20T01:12:32.679Z,281.00
2022-08-20T01:13:32.687Z,282.00
2022-08-20T01:14:32.665Z,282.00
2022-08-20T01:15:32.668Z,283.00
2022-08-20T01:16:32.647Z,285.00
2022-08-20T01:17:32.644Z,286.00
2022-08-20T01:18:32.610Z,286.00
2022-08-20T01:19:32.602Z,284.00
2022-08-20T01:20:32.583Z,283.00
2022-08-20T01:21:32.598Z,280.00
2022-08-20T01:22:32.552Z,278.00
2022-08-20T01:23:32.557Z,278.00
2022-08-20T01:24:32.525Z,278.00
2022-08-20T01:25:32.521Z,280.00
2022-08-20T01:26:32.506Z,281.00
2022-08-20T01:27:33.665Z,280.00
2022-08-20T01:28:32.459Z,279.00
2022-08-20T01:29:32.476Z,276.00
2022-08-20T01:30:32.427Z,276.00
2022-08-20T01:31:32.445Z,278.00
2022-08-20T01:32:32.438Z,278.00
2022-08-20T01:33:32.414Z,279.00
2022-08-20T01:34:32.425Z,279.00
2022-08-20T01:35:32.381Z,281.00
2022-08-20T01:36:32.397Z,283.00
2022-08-20T01:37:32.353Z,283.00
2022-08-20T01:38:32.339Z,284.00
2022-08-20T01:39:32.418Z,284.00
2022-08-20T01:40:32.304Z,283.00
2022-08-20T01:41:32.294Z,283.00
2022-08-20T01:42:32.270Z,281.00
2022-08-20T01:43:32.308Z,282.00
2022-08-20T01:44:32.258Z,283.00
2022-08-20T01:45:32.253Z,282.00
2022-08-20T01:46:32.255Z,286.00
2022-08-20T01:47:36.467Z,287.00
2022-08-20T01:48:32.213Z,286.00
2022-08-20T01:49:32.198Z,286.00
2022-08-20T01:50:32.172Z,286.00
2022-08-20T01:51:32.168Z,285.00
2022-08-20T01:52:32.140Z,284.00
2022-08-20T01:53:32.120Z,284.00
2022-08-20T01:54:32.110Z,284.00
2022-08-20T01:55:32.092Z,282.00
2022-08-20T01:56:32.083Z,282.00
2022-08-20T01:57:32.090Z,281.00
2022-08-20T01:58:32.051Z,281.00
2022-08-20T01:59:32.094Z,283.00
2022-08-20T02:00:32.015Z,285.00
2022-08-20T02:01:32.093Z,287.00
2022-08-20T02:02:32.022Z,290.00
2022-08-20T02:03:37.416Z,290.00
2022-08-20T02:04:32.012Z,291.00
2022-08-20T02:05:31.987Z,287.00
2022-08-20T02:06:31.987Z,286.00
2022-08-20T02:07:31.938Z,286.00
2022-08-20T02:08:31.951Z,289.00
2022-08-20T02:09:31.922Z,290.00
2022-08-20T02:10:31.972Z,288.00
2022-08-20T02:11:31.914Z,287.00
2022-08-20T02:12:31.905Z,288.00
2022-08-20T02:13:31.864Z,290.00
2022-08-20T02:14:31.831Z,289.00
2022-08-20T02:15:37.322Z,288.00
2022-08-20T02:16:31.847Z,289.00
2022-08-20T02:17:31.820Z,289.00
2022-08-20T02:18:31.805Z,287.00
2022-08-20T02:19:31.788Z,289.00
2022-08-20T02:20:31.835Z,291.00
2022-08-20T02:21:31.851Z,292.00
2022-08-20T02:22:31.763Z,292.00
2022-08-20T02:23:31.747Z,294.00
2022-08-20T02:24:31.698Z,295.00
2022-08-20T02:25:31.750Z,294.00
2022-08-20T02:26:31.700Z,294.00
2022-08-20T02:27:31.716Z,291.00
2022-08-20T02:28:31.679Z,292.00
2022-08-20T02:29:31.671Z,294.00
2022-08-20T02:30:31.644Z,294.00
2022-08-20T02:31:34.799Z,294.00
2022-08-20T02:32:33.788Z,291.00
2022-08-20T02:33:31.613Z,292.00
2022-08-20T02:34:31.579Z,290.00
2022-08-20T02:35:31.616Z,291.00
2022-08-20T02:36:31.583Z,292.00
2022-08-20T02:37:31.590Z,292.00
2022-08-20T02:38:31.536Z,292.00
2022-08-20T02:39:31.555Z,292.00
2022-08-20T02:40:31.576Z,292.00
2022-08-20T02:41:31.510Z,291.00
2022-08-20T02:42:31.507Z,292.00
2022-08-20T02:43:31.469Z,293.00
2022-08-20T02:44:31.460Z,292.00
2022-08-20T02:45:31.448Z,294.00
2022-08-20T02:46:31.428Z,293.00
2022-08-20T02:47:31.419Z,293.00
2022-08-20T02:48:31.451Z,291.00
2022-08-20T02:49:31.395Z,291.00
2022-08-20T02:50:31.421Z,292.00
2022-08-20T02:51:31.350Z,292.00
2022-08-20T02:52:31.338Z,293.00
2022-08-20T02:53:31.342Z,292.00
2022-08-20T02:54:31.322Z,293.00
2022-08-20T02:55:31.300Z,293.00
2022-08-20T02:56:31.260Z,292.00
2022-08-20T02:57:31.293Z,291.00
2022-08-20T02:58:31.264Z,287.00
2022-08-20T02:59:31.231Z,287.00
2022-08-20T03:00:37.787Z,287.00
2022-08-20T03:01:31.263Z,289.00
2022-08-20T03:02:31.184Z,291.00
2022-08-20T03:03:31.199Z,290.00
2022-08-20T03:04:31.210Z,291.00
2022-08-20T03:05:31.174Z,290.00
2022-08-20T03:06:31.128Z,290.00
2022-08-20T03:07:31.127Z,291.00
2022-08-20T03:08:31.118Z,289.00
2022-08-20T03:09:31.132Z,288.00
2022-08-20T03:10:31.096Z,288.00
2022-08-20T03:11:31.089Z,291.00
2022-08-20T03:12:31.048Z,291.00
2022-08-20T03:13:31.040Z,292.00
2022-08-20T03:14:31.052Z,289.00
2022-08-20T03:15:31.011Z,288.00
2022-08-20T03:16:30.991Z,288.00
2022-08-20T03:17:30.984Z,289.00
2022-08-20T03:18:30.984Z,290.00
2022-08-20T03:19:30.973Z,292.00
2022-08-20T03:20:30.967Z,292.00
2022-08-20T03:21:30.937Z,293.00
2022-08-20T03:22:30.929Z,294.00
2022-08-20T03:23:30.908Z,292.00
2022-08-20T03:24:30.921Z,290.00
2022-08-20T03:25:30.897Z,287.00
2022-08-20T03:26:30.894Z,287.00
2022-08-20T03:27:36.129Z,284.00
2022-08-20T03:28:30.856Z,285.00
2022-08-20T03:29:30.835Z,287.00
2022-08-20T03:30:30.826Z,285.00
2022-08-20T03:31:30.852Z,285.00
2022-08-20T03:32:30.821Z,286.00
2022-08-20T03:33:30.806Z,286.00
2022-08-20T03:34:30.767Z,288.00
2022-08-20T03:35:30.772Z,287.00
2022-08-20T03:36:30.762Z,288.00
2022-08-20T03:37:30.718Z,289.00
2022-08-20T03:38:32.569Z,290.00
2022-08-20T03:39:30.706Z,291.00
2022-08-20T03:40:30.699Z,289.00
2022-08-20T03:41:30.716Z,287.00
2022-08-20T03:42:30.659Z,286.00
2022-08-20T03:43:30.705Z,289.00
2022-08-20T03:44:30.681Z,291.00
2022-08-20T03:45:30.619Z,291.00
2022-08-20T03:46:30.638Z,293.00
2022-08-20T03:47:30.615Z,293.00
2022-08-20T03:48:30.593Z,294.00
2022-08-20T03:49:30.576Z,295.00
2022-08-20T03:50:30.543Z,295.00
2022-08-20T03:51:30.546Z,295.00
2022-08-20T03:52:30.517Z,296.00
2022-08-20T03:53:30.519Z,295.00
2022-08-20T03:54:31.991Z,293.00
2022-08-20T03:55:30.518Z,293.00
2022-08-20T03:56:30.504Z,291.00
2022-08-20T03:57:30.477Z,291.00
2022-08-20T03:58:35.409Z,291.00
2022-08-20T03:59:30.479Z,290.00
2022-08-20T04:00:30.421Z,291.00
2022-08-20T04:01:45.188Z,289.00
2022-08-20T04:02:30.405Z,290.00
2022-08-20T04:03:30.392Z,290.00
2022-08-20T04:04:30.347Z,288.00
2022-08-20T04:05:30.374Z,286.00
2022-08-20T04:06:30.351Z,285.00
2022-08-20T04:07:30.332Z,285.00
2022-08-20T04:08:30.331Z,283.00
2022-08-20T04:09:30.303Z,285.00
2022-08-20T04:10:30.267Z,286.00
2022-08-20T04:11:30.295Z,286.00
2022-08-20T04:12:30.277Z,287.00
2022-08-20T04:13:30.472Z,285.00
2022-08-20T04:14:30.221Z,284.00
2022-08-20T04:15:30.236Z,286.00
2022-08-20T04:16:30.217Z,287.00
2022-08-20T04:17:30.200Z,287.00
2022-08-20T04:18:30.178Z,286.00
2022-08-20T04:19:34.119Z,285.00
2022-08-20T04:20:30.167Z,287.00
2022-08-20T04:21:32.483Z,288.00
2022-08-20T04:22:30.139Z,288.00
2022-08-20T04:23:30.118Z,288.00
2022-08-20T04:24:32.380Z,289.00
2022-08-20T04:25:30.110Z,289.00
2022-08-20T04:26:30.058Z,291.00
2022-08-20T04:27:30.076Z,290.00
2022-08-20T04:28:30.036Z,289.00
2022-08-20T04:29:32.244Z,290.00
2022-08-20T04:30:30.016Z,289.00
2022-08-20T04:31:29.994Z,288.00
2022-08-20T04:32:29.997Z,289.00
2022-08-20T04:33:34.234Z,289.00
2022-08-20T04:34:29.953Z,290.00
2022-08-20T04:35:29.962Z,290.00
2022-08-20T04:36:29.918Z,289.00
2022-08-20T04:37:29.931Z,289.00
2022-08-20T04:38:50.494Z,291.00
2022-08-20T04:39:29.912Z,290.00
2022-08-20T04:40:29.865Z,290.00
2022-08-20T04:41:29.886Z,289.00
2022-08-20T04:42:29.873Z,290.00
2022-08-20T04:43:29.825Z,289.00
2022-08-20T04:44:29.842Z,289.00
2022-08-20T04:45:29.831Z,288.00
2022-08-20T04:46:29.807Z,288.00
2022-08-20T04:47:34.807Z,288.00
2022-08-20T04:48:29.784Z,289.00
2022-08-20T04:49:29.788Z,290.00
2022-08-20T04:50:29.774Z,292.00
2022-08-20T04:51:29.747Z,292.00
2022-08-20T04:52:29.712Z,292.00
2022-08-20T04:53:29.720Z,295.00
2022-08-20T04:54:29.742Z,295.00
2022-08-20T04:55:29.686Z,293.00
2022-08-20T04:56:29.661Z,292.00
2022-08-20T04:57:29.666Z,293.00
2022-08-20T04:58:29.644Z,295.00
2022-08-20T04:59:29.619Z,293.00
2022-08-20T05:00:29.621Z,295.00
2022-08-20T05:01:29.716Z,293.00
2022-08-20T05:02:29.573Z,293.00
2022-08-20T05:03:29.563Z,293.00
2022-08-20T05:04:29.561Z,291.00
2022-08-20T05:05:29.530Z,292.00
2022-08-20T05:06:29.549Z,292.00
2022-08-20T05:07:29.544Z,293.00
2022-08-20T05:08:29.507Z,292.00
2022-08-20T05:09:29.486Z,293.00
2022-08-20T05:10:29.516Z,294.00
2022-08-20T05:11:33.549Z,295.00
2022-08-20T05:12:29.449Z,295.00
2022-08-20T05:13:29.445Z,294.00
2022-08-20T05:14:29.447Z,295.00
2022-08-20T05:15:29.401Z,296.00
2022-08-20T05:16:29.399Z,296.00
2022-08-20T05:17:29.364Z,292.00
2022-08-20T05:18:29.357Z,289.00
2022-08-20T05:19:29.368Z,289.00
2022-08-20T05:20:29.366Z,290.00
2022-08-20T05:21:29.336Z,291.00
2022-08-20T05:22:30.745Z,290.00
2022-08-20T05:23:29.302Z,292.00
2022-08-20T05:24:29.282Z,294.00
2022-08-20T05:25:29.279Z,294.00
2022-08-20T05:26:29.277Z,293.00
2022-08-20T05:27:29.258Z,294.00
2022-08-20T05:28:29.227Z,294.00
2022-08-20T05:29:29.226Z,294.00
2022-08-20T05:30:29.223Z,294.00
2022-08-20T05:31:31.019Z,294.00
2022-08-20T05:32:29.202Z,295.00
2022-08-20T05:33:29.158Z,291.00
2022-08-20T05:34:29.150Z,291.00
2022-08-20T05:35:29.127Z,294.00
2022-08-20T05:36:29.150Z,294.00
2022-08-20T05:37:29.131Z,294.00
2022-08-20T05:38:29.124Z,294.00
2022-08-20T05:39:29.115Z,292.00
2022-08-20T05:40:29.100Z,291.00
2022-08-20T05:41:30.222Z,289.00
2022-08-20T05:42:29.076Z,290.00
2022-08-20T05:43:29.069Z,289.00
2022-08-20T05:44:29.034Z,290.00
2022-08-20T05:45:29.017Z,288.00
2022-08-20T05:46:28.986Z,288.00
2022-08-20T05:47:28.972Z,287.00
2022-08-20T05:48:28.961Z,287.00
2022-08-20T05:49:28.982Z,285.00
2022-08-20T05:50:28.935Z,284.00
2022-08-20T05:51:28.915Z,287.00
2022-08-20T05:52:28.966Z,287.00
2022-08-20T05:53:28.916Z,289.00
2022-08-20T05:54:28.916Z,289.00
2022-08-20T05:55:28.871Z,289.00
2022-08-20T05:56:28.856Z,290.00
2022-08-20T05:57:28.856Z,291.00
2022-08-20T05:58:28.848Z,289.00
2022-08-20T05:59:28.892Z,289.00
2022-08-20T06:00:28.832Z,289.00
2022-08-20T06:01:28.896Z,289.00
2022-08-20T06:02:28.796Z,289.00
2022-08-20T06:03:28.942Z,288.00
2022-08-20T06:04:28.892Z,289.00
2022-08-20T06:05:28.792Z,288.00
2022-08-20T06:06:44.982Z,290.00
2022-08-20T06:07:28.713Z,288.00
2022-08-20T06:08:28.707Z,288.00
2022-08-20T06:09:31.705Z,288.00
2022-08-20T06:10:28.715Z,289.00
2022-08-20T06:11:28.656Z,289.00
2022-08-20T06:12:28.773Z,289.00
2022-08-20T06:13:28.627Z,288.00
2022-08-20T06:14:28.620Z,287.00
2022-08-20T06:15:28.671Z,287.00
2022-08-20T06:16:29.551Z,288.00
2022-08-20T06:17:28.587Z,287.00
2022-08-20T06:18:28.997Z,286.00
2022-08-20T06:19:32.267Z,288.00
2022-08-20T06:20:28.575Z,286.00
2022-08-20T06:21:28.534Z,286.00
2022-08-20T06:22:28.537Z,285.00
2022-08-20T06:23:28.506Z,285.00
2022-08-20T06:24:28.507Z,286.00
2022-08-20T06:25:28.754Z,286.00
2022-08-20T06:26:30.221Z,289.00
2022-08-20T06:27:28.649Z,291.00
2022-08-20T06:28:28.534Z,292.00
2022-08-20T06:29:28.445Z,293.00
2022-08-20T06:30:28.622Z,292.00
2022-08-20T06:31:28.482Z,291.00
2022-08-20T06:32:32.126Z,292.00
2022-08-20T06:33:28.635Z,290.00
2022-08-20T06:34:30.897Z,291.00
2022-08-20T06:35:28.424Z,293.00
2022-08-20T06:36:28.479Z,291.00
2022-08-20T06:37:31.194Z,289.00
2022-08-20T06:38:28.550Z,289.00
2022-08-20T06:39:28.530Z,289.00
2022-08-20T06:40:28.481Z,289.00
2022-08-20T06:41:36.080Z,290.00
2022-08-20T06:42:28.358Z,290.00
2022-08-20T06:43:28.407Z,288.00
2022-08-20T06:44:28.287Z,289.00
2022-08-20T06:45:28.196Z,289.00
2022-08-20T06:46:28.484Z,290.00
2022-08-20T06:47:28.414Z,289.00
2022-08-20T06:48:28.335Z,286.00
2022-08-20T06:49:28.249Z,287.00
2022-08-20T06:50:28.228Z,286.00
2022-08-20T06:51:28.179Z,285.00
2022-08-20T06:52:51.802Z,285.00
2022-08-20T06:53:28.179Z,286.00
2022-08-20T06:54:29.220Z,284.00
2022-08-20T06:55:28.089Z,284.00
2022-08-20T06:56:28.318Z,284.00
2022-08-20T06:57:28.238Z,283.00
2022-08-20T06:58:37.537Z,282.00
2022-08-20T06:59:28.032Z,279.00
2022-08-20T07:00:28.226Z,279.00
2022-08-20T07:01:28.231Z,279.00
2022-08-20T07:02:29.190Z,278.00
2022-08-20T07:03:28.050Z,277.00
2022-08-20T07:04:28.067Z,277.00
2022-08-20T07:05:27.947Z,275.00
2022-08-20T07:06:27.935Z,278.00
2022-08-20T07:07:28.350Z,280.00
2022-08-20T07:08:28.060Z,282.00
2022-08-20T07:09:28.096Z,282.00
2022-08-20T07:10:28.077Z,283.00
2022-08-20T07:11:28.808Z,285.00
2022-08-20T07:12:27.852Z,286.00
2022-08-20T07:13:27.865Z,287.00
2022-08-20T07:14:27.829Z,288.00
2022-08-20T07:15:27.796Z,286.00
2022-08-20T07:16:27.798Z,282.00
2022-08-20T07:17:27.768Z,281.00
2022-08-20T07:18:28.914Z,283.00
2022-08-20T07:19:27.741Z,283.00
2022-08-20T07:20:27.750Z,287.00
2022-08-20T07:21:27.728Z,289.00
2022-08-20T07:22:27.701Z,291.00
2022-08-20T07:23:27.721Z,291.00
2022-08-20T07:24:33.299Z,291.00
2022-08-20T07:25:27.684Z,292.00
2022-08-20T07:26:27.655Z,292.00
2022-08-20T07:27:27.628Z,293.00
2022-08-20T07:28:27.620Z,294.00
2022-08-20T07:29:27.625Z,290.00
2022-08-20T07:30:27.596Z,291.00
2022-08-20T07:31:27.589Z,291.00
2022-08-20T07:32:28.062Z,288.00
2022-08-20T07:33:28.357Z,287.00
2022-08-20T07:34:27.565Z,286.00
2022-08-20T07:35:27.547Z,287.00
2022-08-20T07:36:27.548Z,288.00
2022-08-20T07:37:27.515Z,286.00
2022-08-20T07:38:27.488Z,283.00
2022-08-20T07:39:28.523Z,283.00
2022-08-20T07:40:27.593Z,283.00
2022-08-20T07:41:27.457Z,284.00
2022-08-20T07:42:27.442Z,283.00
2022-08-20T07:43:27.441Z,284.00
2022-08-20T07:44:30.841Z,284.00
2022-08-20T07:45:27.408Z,283.00
2022-08-20T07:46:31.137Z,284.00
2022-08-20T07:47:27.375Z,286.00
2022-08-20T07:48:28.034Z,287.00
2022-08-20T07:49:27.379Z,286.00
2022-08-20T07:50:27.336Z,286.00
2022-08-20T07:51:27.347Z,286.00
2022-08-20T07:52:27.325Z,285.00
2022-08-20T07:53:28.080Z,282.00
2022-08-20T07:54:27.269Z,281.00
2022-08-20T07:55:27.276Z,281.00
2022-08-20T07:56:28.098Z,282.00
2022-08-20T07:57:27.260Z,283.00
2022-08-20T07:58:27.657Z,285.00
2022-08-20T07:59:27.212Z,284.00
2022-08-20T08:00:27.222Z,282.00
2022-08-20T08:01:27.284Z,282.00
2022-08-20T08:02:27.214Z,281.00
2022-08-20T08:03:40.532Z,284.00
2022-08-20T08:04:27.166Z,284.00
2022-08-20T08:05:27.154Z,286.00
2022-08-20T08:06:29.469Z,286.00
2022-08-20T08:07:27.139Z,286.00
2022-08-20T08:08:27.124Z,286.00
2022-08-20T08:09:27.118Z,285.00
2022-08-20T08:10:27.083Z,286.00
2022-08-20T08:11:27.070Z,286.00
2022-08-20T08:12:27.063Z,286.00
2022-08-20T08:13:27.034Z,286.00
2022-08-20T08:14:27.082Z,286.00
2022-08-20T08:15:27.065Z,284.00
2022-08-20T08:16:27.035Z,284.00
2022-08-20T08:17:26.999Z,285.00
2022-08-20T08:18:31.375Z,286.00
2022-08-20T08:19:26.956Z,285.00
2022-08-20T08:20:26.954Z,284.00
2022-08-20T08:21:26.908Z,285.00
2022-08-20T08:22:26.934Z,285.00
2022-08-20T08:23:32.243Z,286.00
2022-08-20T08:24:28.576Z,287.00
2022-08-20T08:25:26.867Z,285.00
2022-08-20T08:26:26.845Z,286.00
2022-08-20T08:27:26.846Z,285.00
2022-08-20T08:28:26.845Z,286.00
2022-08-20T08:29:26.817Z,286.00
2022-08-20T08:30:26.832Z,286.00
2022-08-20T08:31:26.798Z,286.00
2022-08-20T08:32:26.782Z,285.00
2022-08-20T08:33:26.777Z,285.00
2022-08-20T08:34:26.741Z,286.00
2022-08-20T08:35:26.761Z,285.00
2022-08-20T08:36:26.726Z,283.00
2022-08-20T08:37:30.505Z,284.00
2022-08-20T08:38:26.687Z,285.00
2022-08-20T08:39:26.685Z,285.00
2022-08-20T08:40:26.687Z,284.00
2022-08-20T08:41:26.678Z,282.00
2022-08-20T08:42:26.661Z,281.00
2022-08-20T08:43:26.614Z,280.00
2022-08-20T08:44:26.646Z,280.00
2022-08-20T08:45:26.613Z,280.00
2022-08-20T08:46:26.605Z,281.00
2022-08-20T08:47:26.610Z,281.00
2022-08-20T08:48:26.589Z,281.00
2022-08-20T08:49:37.320Z,280.00
2022-08-20T08:50:50.044Z,280.00
2022-08-20T08:51:26.585Z,281.00
2022-08-20T08:52:26.523Z,281.00
2022-08-20T08:53:26.520Z,281.00
2022-08-20T08:54:26.511Z,283.00
2022-08-20T08:55:26.491Z,283.00
2022-08-20T08:56:26.448Z,282.00
2022-08-20T08:57:26.477Z,282.00
2022-08-20T08:58:26.426Z,281.00
2022-08-20T08:59:26.449Z,280.00
2022-08-20T09:00:26.467Z,279.00
2022-08-20T09:01:55.020Z,280.00
2022-08-20T09:02:26.471Z,281.00
2022-08-20T09:03:26.381Z,281.00
2022-08-20T09:04:26.357Z,283.00
2022-08-20T09:05:26.372Z,282.00
2022-08-20T09:06:26.322Z,280.00
2022-08-20T09:07:26.315Z,279.00
2022-08-20T09:08:26.313Z,276.00
2022-08-20T09:09:26.330Z,275.00
2022-08-20T09:10:26.312Z,273.00
2022-08-20T09:11:26.283Z,272.00
2022-08-20T09:12:26.228Z,272.00
2022-08-20T09:13:26.280Z,272.00
2022-08-20T09:14:26.220Z,270.00
2022-08-20T09:15:26.195Z,272.00
2022-08-20T09:16:26.218Z,272.00
2022-08-20T09:17:26.170Z,274.00
2022-08-20T09:18:26.162Z,272.00
2022-08-20T09:19:26.170Z,271.00
2022-08-20T09:20:27.245Z,273.00
2022-08-20T09:21:26.129Z,273.00
2022-08-20T09:22:26.097Z,272.00
2022-08-20T09:23:26.105Z,272.00
2022-08-20T09:24:26.098Z,273.00
2022-08-20T09:25:26.065Z,271.00
2022-08-20T09:26:29.168Z,271.00
2022-08-20T09:27:26.034Z,274.00
2022-08-20T09:28:26.019Z,274.00
2022-08-20T09:29:26.054Z,278.00
2022-08-20T09:30:26.007Z,280.00
2022-08-20T09:31:26.010Z,282.00
2022-08-20T09:32:26.176Z,284.00
2022-08-20T09:33:25.960Z,284.00
2022-08-20T09:34:25.963Z,284.00
2022-08-20T09:35:25.943Z,285.00
2022-08-20T09:36:32.666Z,286.00
2022-08-20T09:37:25.923Z,285.00
2022-08-20T09:38:25.894Z,284.00
2022-08-20T09:39:25.922Z,284.00
2022-08-20T09:40:25.884Z,284.00
2022-08-20T09:41:25.866Z,284.00
2022-08-20T09:42:25.867Z,285.00
2022-08-20T09:43:25.819Z,286.00
2022-08-20T09:44:25.844Z,287.00
2022-08-20T09:45:25.817Z,287.00
2022-08-20T09:46:27.144Z,289.00
2022-08-20T09:47:25.761Z,287.00
2022-08-20T09:48:32.056Z,288.00
2022-08-20T09:49:25.760Z,290.00
2022-08-20T09:50:25.725Z,289.00
2022-08-20T09:51:25.725Z,289.00
2022-08-20T09:52:25.737Z,289.00
2022-08-20T09:53:25.684Z,290.00
2022-08-20T09:54:25.680Z,289.00
2022-08-20T09:55:25.667Z,288.00
2022-08-20T09:56:25.660Z,286.00
2022-08-20T09:57:25.657Z,285.00
2022-08-20T09:58:25.629Z,287.00
2022-08-20T09:59:25.619Z,286.00
2022-08-20T10:00:25.595Z,287.00
2022-08-20T10:01:25.681Z,288.00
2022-08-20T10:02:25.597Z,289.00
2022-08-20T10:03:25.545Z,287.00
2022-08-20T10:04:25.576Z,287.00
2022-08-20T10:05:25.564Z,285.00
2022-08-20T10:06:25.524Z,287.00
2022-08-20T10:07:25.533Z,290.00
2022-08-20T10:08:25.534Z,291.00
2022-08-20T10:09:25.504Z,293.00
2022-08-20T10:10:25.493Z,293.00
2022-08-20T10:11:25.521Z,291.00
2022-08-20T10:12:25.485Z,291.00
2022-08-20T10:13:25.463Z,287.00
2022-08-20T10:14:25.438Z,285.00
2022-08-20T10:15:25.407Z,283.00
2022-08-20T10:16:25.401Z,284.00
2022-08-20T10:17:25.381Z,282.00
2022-08-20T10:18:25.353Z,281.00
2022-08-20T10:19:25.371Z,283.00
2022-08-20T10:20:25.329Z,284.00
2022-08-20T10:21:25.332Z,283.00
2022-08-20T10:22:25.294Z,284.00
2022-08-20T10:23:25.281Z,287.00
2022-08-20T10:24:25.290Z,287.00
2022-08-20T10:25:25.283Z,288.00
2022-08-20T10:26:25.415Z,290.00
2022-08-20T10:27:25.251Z,288.00
2022-08-20T10:28:25.213Z,286.00
2022-08-20T10:29:25.214Z,283.00
2022-08-20T10:30:25.218Z,283.00
2022-08-20T10:31:25.188Z,283.00
2022-08-20T10:32:25.199Z,283.00
2022-08-20T10:33:25.155Z,285.00
2022-08-20T10:34:25.185Z,288.00
2022-08-20T10:35:25.139Z,288.00
2022-08-20T10:36:25.107Z,288.00
2022-08-20T10:37:25.141Z,288.00
2022-08-20T10:38:25.081Z,287.00
2022-08-20T10:39:25.074Z,286.00
2022-08-20T10:40:25.119Z,288.00
2022-08-20T10:41:25.077Z,287.00
2022-08-20T10:42:25.042Z,285.00
2022-08-20T10:43:25.032Z,284.00
2022-08-20T10:44:25.003Z,283.00
2022-08-20T10:45:24.996Z,284.00
2022-08-20T10:46:25.014Z,287.00
2022-08-20T10:47:25.018Z,288.00
2022-08-20T10:48:24.973Z,290.00
2022-08-20T10:49:24.977Z,290.00
2022-08-20T10:50:24.947Z,289.00
2022-08-20T10:51:32.716Z,288.00
2022-08-20T10:52:24.944Z,288.00
2022-08-20T10:53:24.923Z,287.00
2022-08-20T10:54:24.903Z,287.00
2022-08-20T10:55:24.879Z,289.00
2022-08-20T10:56:24.892Z,286.00
2022-08-20T10:57:24.832Z,287.00
2022-08-20T10:58:24.840Z,288.00
2022-08-20T10:59:24.843Z,288.00
2022-08-20T11:00:24.820Z,288.00
2022-08-20T11:01:31.545Z,288.00
2022-08-20T11:02:24.811Z,285.00
2022-08-20T11:03:24.778Z,284.00
2022-08-20T11:04:24.775Z,286.00
2022-08-20T11:05:24.733Z,286.00
2022-08-20T11:06:24.733Z,285.00
2022-08-20T11:07:50.797Z,285.00
2022-08-20T11:08:34.166Z,285.00
2022-08-20T11:09:24.701Z,287.00
2022-08-20T11:10:24.674Z,286.00
2022-08-20T11:11:24.685Z,285.00
2022-08-20T11:12:24.637Z,284.00
2022-08-20T11:13:24.671Z,279.00
2022-08-20T11:14:24.603Z,279.00
2022-08-20T11:15:24.612Z,278.00
2022-08-20T11:16:24.602Z,279.00
2022-08-20T11:17:24.588Z,280.00
2022-08-20T11:18:24.570Z,280.00
2022-08-20T11:19:24.551Z,281.00
2022-08-20T11:20:24.550Z,285.00
2022-08-20T11:21:24.516Z,283.00
2022-08-20T11:22:24.517Z,283.00
2022-08-20T11:23:24.508Z,282.00
2022-08-20T11:24:24.474Z,281.00
2022-08-20T11:25:24.473Z,279.00
2022-08-20T11:26:24.494Z,277.00
2022-08-20T11:27:24.435Z,277.00
2022-08-20T11:28:31.355Z,275.00
2022-08-20T11:29:24.470Z,276.00
2022-08-20T11:30:24.415Z,277.00
2022-08-20T11:31:24.413Z,276.00
2022-08-20T11:32:24.387Z,278.00
2022-08-20T11:33:24.406Z,281.00
2022-08-20T11:34:24.359Z,281.00
2022-08-20T11:35:42.188Z,282.00
2022-08-20T11:36:24.323Z,279.00
2022-08-20T11:37:24.301Z,278.00
2022-08-20T11:38:24.312Z,279.00
2022-08-20T11:39:24.370Z,276.00
2022-08-20T11:40:24.336Z,274.00
2022-08-20T11:41:24.285Z,273.00
2022-08-20T11:42:24.269Z,274.00
2022-08-20T11:43:24.250Z,275.00
2022-08-20T11:44:24.213Z,277.00
2022-08-20T11:45:24.207Z,279.00
2022-08-20T11:46:28.003Z,282.00
2022-08-20T11:47:24.174Z,283.00
2022-08-20T11:48:24.152Z,283.00
2022-08-20T11:49:24.182Z,283.00
2022-08-20T11:50:24.126Z,284.00
2022-08-20T11:51:24.157Z,284.00
2022-08-20T11:52:24.095Z,286.00
2022-08-20T11:53:24.112Z,286.00
2022-08-20T11:54:24.098Z,286.00
2022-08-20T11:55:29.528Z,286.00
2022-08-20T11:56:24.053Z,285.00
2022-08-20T11:57:24.041Z,284.00
2022-08-20T11:58:24.032Z,286.00
2022-08-20T11:59:24.091Z,288.00
2022-08-20T12:00:33.226Z,291.00
2022-08-20T12:01:24.021Z,293.00
2022-08-20T12:02:24.036Z,292.00
2022-08-20T12:03:24.031Z,291.00
2022-08-20T12:04:25.230Z,295.00
2022-08-20T12:05:23.926Z,293.00
2022-08-20T12:06:23.964Z,292.00
2022-08-20T12:07:23.921Z,290.00
2022-08-20T12:08:27.509Z,288.00
2022-08-20T12:09:24.877Z,287.00
2022-08-20T12:10:23.888Z,287.00
2022-08-20T12:11:23.879Z,289.00
2022-08-20T12:12:23.894Z,289.00
2022-08-20T12:13:28.572Z,290.00
2022-08-20T12:14:23.807Z,291.00
2022-08-20T12:15:23.838Z,291.00
2022-08-20T12:16:23.796Z,293.00
2022-08-20T12:17:23.773Z,293.00
2022-08-20T12:18:23.791Z,294.00
2022-08-20T12:19:23.743Z,294.00
2022-08-20T12:20:23.746Z,293.00
2022-08-20T12:21:23.751Z,292.00
2022-08-20T12:22:24.956Z,288.00
2022-08-20T12:23:23.710Z,288.00
2022-08-20T12:24:23.750Z,287.00
2022-08-20T12:25:23.663Z,285.00
2022-08-20T12:26:23.696Z,286.00
2022-08-20T12:27:23.647Z,285.00
2022-08-20T12:28:25.913Z,284.00